sensor_id;sensor_type;location;lat;lon;timestamp;pressure;altitude;pressure_sealevel;temperature;humidity
30463;BME280;17256;43.618;25.336;2023-04-26T00:00:13;99496.53;;;12.25;100.00
30463;BME280;17256;43.618;25.336;2023-04-26T00:02:39;99340.66;;;11.13;100.00
30463;BME280;17256;43.618;25.336;2023-04-26T00:14:13;99503.00;;;12.19;100.00
30463;BME280;17256;43.618;25.336;2023-04-26T00:16:49;99646.19;;;12.96;100.00
30463;BME280;17256;43.618;25.336;2023-04-26T00:19:17;99554.50;;;12.42;100.00
30463;BME280;17256;43.618;25.336;2023-04-26T00:21:50;99342.31;;;11.02;100.00
30463;BME280;17256;43.618;25.336;2023-04-26T00:24:20;99230.94;;;10.28;100.00
30463;BME280;17256;43.618;25.336;2023-04-26T00:26:46;99486.81;;;11.99;100.00
30463;BME280;17256;43.618;25.336;2023-04-26T00:29:22;99541.66;;;12.24;100.00
30463;BME280;17256;43.618;25.336;2023-04-26T00:32:10;99443.16;;;11.73;100.00
30463;BME280;17256;43.618;25.336;2023-04-26T00:35:14;99296.06;;;10.69;100.00
30463;BME280;17256;43.618;25.336;2023-04-26T00:37:40;99346.34;;;10.99;100.00
30463;BME280;17256;43.618;25.336;2023-04-26T00:40:06;99280.06;;;10.66;100.00
30463;BME280;17256;43.618;25.336;2023-04-26T00:42:32;99557.47;;;12.29;100.00
30463;BME280;17256;43.618;25.336;2023-04-26T00:44:57;99309.13;;;10.85;100.00
30463;BME280;17256;43.618;25.336;2023-04-26T00:47:28;99529.66;;;12.07;100.00
30463;BME280;17256;43.618;25.336;2023-04-26T00:49:54;99526.19;;;12.12;100.00
30463;BME280;17256;43.618;25.336;2023-04-26T01:19:05;99237.78;;;10.18;100.00
30463;BME280;17256;43.618;25.336;2023-04-26T01:21:32;99534.53;;;12.05;100.00
30463;BME280;17256;43.618;25.336;2023-04-26T01:23:59;99140.53;;;9.66;100.00
30463;BME280;17256;43.618;25.336;2023-04-26T01:26:25;99326.94;;;10.83;100.00
30463;BME280;17256;43.618;25.336;2023-04-26T01:32:39;99250.97;;;10.46;100.00
30463;BME280;17256;43.618;25.336;2023-04-26T01:36:19;99607.91;;;12.53;100.00
30463;BME280;17256;43.618;25.336;2023-04-26T01:40:09;99604.31;;;12.52;100.00
30463;BME280;17256;43.618;25.336;2023-04-26T01:44:10;99595.56;;;12.44;100.00
30463;BME280;17256;43.618;25.336;2023-04-26T02:12:27;99311.19;;;10.90;100.00
30463;BME280;17256;43.618;25.336;2023-04-26T02:14:55;99108.50;;;9.67;100.00
30463;BME280;17256;43.618;25.336;2023-04-26T02:17:24;99408.19;;;11.50;100.00
30463;BME280;17256;43.618;25.336;2023-04-26T02:19:57;99443.09;;;11.50;100.00
30463;BME280;17256;43.618;25.336;2023-04-26T02:22:39;99331.81;;;10.81;100.00
30463;BME280;17256;43.618;25.336;2023-04-26T02:25:25;99575.78;;;12.35;100.00
30463;BME280;17256;43.618;25.336;2023-04-26T02:28:18;99576.63;;;12.36;100.00
30463;BME280;17256;43.618;25.336;2023-04-26T02:30:51;99561.78;;;12.37;100.00
30463;BME280;17256;43.618;25.336;2023-04-26T02:33:26;99306.28;;;10.62;100.00
30463;BME280;17256;43.618;25.336;2023-04-26T02:36:46;99428.22;;;11.39;100.00
30463;BME280;17256;43.618;25.336;2023-04-26T02:39:23;99599.97;;;12.33;100.00
30463;BME280;17256;43.618;25.336;2023-04-26T02:41:56;99597.97;;;12.40;100.00
30463;BME280;17256;43.618;25.336;2023-04-26T02:48:09;99184.53;;;9.90;100.00
30463;BME280;17256;43.618;25.336;2023-04-26T02:51:08;99574.34;;;12.32;100.00
30463;BME280;17256;43.618;25.336;2023-04-26T02:54:19;99446.44;;;11.52;100.00
30463;BME280;17256;43.618;25.336;2023-04-26T02:56:47;99443.31;;;11.48;100.00
30463;BME280;17256;43.618;25.336;2023-04-26T02:59:12;99450.50;;;11.49;100.00
30463;BME280;17256;43.618;25.336;2023-04-26T03:01:38;99399.06;;;11.08;100.00
30463;BME280;17256;43.618;25.336;2023-04-26T03:04:04;99295.66;;;10.35;100.00
30463;BME280;17256;43.618;25.336;2023-04-26T03:06:30;99442.38;;;11.24;100.00
30463;BME280;17256;43.618;25.336;2023-04-26T03:08:56;99322.00;;;10.55;100.00
30463;BME280;17256;43.618;25.336;2023-04-26T03:11:21;99404.88;;;11.00;100.00
30463;BME280;17256;43.618;25.336;2023-04-26T03:13:47;99215.25;;;9.98;100.00
30463;BME280;17256;43.618;25.336;2023-04-26T03:16:13;99398.78;;;10.98;100.00
30463;BME280;17256;43.618;25.336;2023-04-26T03:18:38;99150.81;;;9.52;100.00
30463;BME280;17256;43.618;25.336;2023-04-26T03:21:05;99398.53;;;10.99;100.00
30463;BME280;17256;43.618;25.336;2023-04-26T03:23:31;99403.59;;;10.84;100.00
30463;BME280;17256;43.618;25.336;2023-04-26T03:25:57;99600.34;;;12.07;100.00
30463;BME280;17256;43.618;25.336;2023-04-26T03:28:23;99357.78;;;10.48;100.00
30463;BME280;17256;43.618;25.336;2023-04-26T03:30:50;99383.47;;;10.72;100.00
30463;BME280;17256;43.618;25.336;2023-04-26T03:33:17;99467.59;;;11.21;100.00
30463;BME280;17256;43.618;25.336;2023-04-26T03:35:43;99485.19;;;11.32;100.00
30463;BME280;17256;43.618;25.336;2023-04-26T03:38:08;99428.16;;;10.97;100.00
30463;BME280;17256;43.618;25.336;2023-04-26T03:40:34;99430.91;;;10.97;100.00
30463;BME280;17256;43.618;25.336;2023-04-26T03:43:00;99461.25;;;11.21;100.00
30463;BME280;17256;43.618;25.336;2023-04-26T03:45:26;99292.56;;;10.07;100.00
30463;BME280;17256;43.618;25.336;2023-04-26T03:47:51;99364.63;;;10.57;100.00
30463;BME280;17256;43.618;25.336;2023-04-26T03:50:17;99358.78;;;10.54;100.00
30463;BME280;17256;43.618;25.336;2023-04-26T03:52:44;99497.50;;;11.29;100.00
30463;BME280;17256;43.618;25.336;2023-04-26T03:59:15;99636.03;;;12.13;100.00
30463;BME280;17256;43.618;25.336;2023-04-26T04:02:33;99201.28;;;9.45;100.00
30463;BME280;17256;43.618;25.336;2023-04-26T04:05:00;99418.47;;;10.76;100.00
30463;BME280;17256;43.618;25.336;2023-04-26T04:07:27;99535.13;;;11.47;100.00
30463;BME280;17256;43.618;25.336;2023-04-26T04:09:53;99461.59;;;10.94;100.00
30463;BME280;17256;43.618;25.336;2023-04-26T04:12:19;99488.19;;;11.12;100.00
30463;BME280;17256;43.618;25.336;2023-04-26T04:14:45;99468.38;;;10.92;100.00
30463;BME280;17256;43.618;25.336;2023-04-26T04:17:11;99360.28;;;10.31;100.00
30463;BME280;17256;43.618;25.336;2023-04-26T04:19:37;99439.22;;;10.72;100.00
30463;BME280;17256;43.618;25.336;2023-04-26T04:22:03;99394.38;;;10.42;100.00
30463;BME280;17256;43.618;25.336;2023-04-26T04:24:29;99391.63;;;10.42;100.00
30463;BME280;17256;43.618;25.336;2023-04-26T04:26:55;99276.69;;;9.72;100.00
30463;BME280;17256;43.618;25.336;2023-04-26T04:29:21;99395.06;;;10.56;100.00
30463;BME280;17256;43.618;25.336;2023-04-26T04:31:49;99352.47;;;10.83;100.00
30463;BME280;17256;43.618;25.336;2023-04-26T04:34:15;99630.34;;;12.68;100.00
30463;BME280;17256;43.618;25.336;2023-04-26T04:39:55;99529.84;;;12.82;99.67
30463;BME280;17256;43.618;25.336;2023-04-26T04:42:33;99509.84;;;12.87;97.31
30463;BME280;17256;43.618;25.336;2023-04-26T04:45:09;99284.16;;;11.93;94.70
30463;BME280;17256;43.618;25.336;2023-04-26T04:47:53;99427.13;;;13.22;91.85
30463;BME280;17256;43.618;25.336;2023-04-26T04:50:19;99423.25;;;13.35;89.43
30463;BME280;17256;43.618;25.336;2023-04-26T04:52:46;99393.81;;;13.12;89.88
30463;BME280;17256;43.618;25.336;2023-04-26T04:55:11;99475.41;;;13.65;89.55
30463;BME280;17256;43.618;25.336;2023-04-26T04:57:37;99509.69;;;13.97;88.17
30463;BME280;17256;43.618;25.336;2023-04-26T05:00:05;99425.56;;;13.54;87.44
30463;BME280;17256;43.618;25.336;2023-04-26T05:02:38;99507.38;;;14.23;85.52
30463;BME280;17256;43.618;25.336;2023-04-26T05:05:05;99481.59;;;14.17;85.07
30463;BME280;17256;43.618;25.336;2023-04-26T05:07:31;99509.06;;;14.57;85.39
30463;BME280;17256;43.618;25.336;2023-04-26T05:09:56;99586.94;;;15.04;84.11
30463;BME280;17256;43.618;25.336;2023-04-26T05:12:22;99453.94;;;14.45;83.06
30463;BME280;17256;43.618;25.336;2023-04-26T05:14:48;99544.91;;;15.24;81.60
30463;BME280;17256;43.618;25.336;2023-04-26T05:17:14;99660.06;;;15.86;81.27
30463;BME280;17256;43.618;25.336;2023-04-26T05:19:39;99683.09;;;15.36;81.63
30463;BME280;17256;43.618;25.336;2023-04-26T05:22:05;99593.03;;;15.23;82.10
30463;BME280;17256;43.618;25.336;2023-04-26T05:24:31;99426.97;;;14.53;80.01
30463;BME280;17256;43.618;25.336;2023-04-26T05:26:58;99662.75;;;16.03;80.01
30463;BME280;17256;43.618;25.336;2023-04-26T05:29:39;99436.66;;;14.94;78.72
30463;BME280;17256;43.618;25.336;2023-04-26T05:32:13;99453.56;;;14.97;77.45
30463;BME280;17256;43.618;25.336;2023-04-26T05:34:40;99428.50;;;15.26;77.37
30463;BME280;17256;43.618;25.336;2023-04-26T05:37:08;99443.75;;;15.55;75.94
30463;BME280;17256;43.618;25.336;2023-04-26T05:39:33;99453.69;;;15.73;73.67
30463;BME280;17256;43.618;25.336;2023-04-26T05:41:59;99466.31;;;15.64;74.83
30463;BME280;17256;43.618;25.336;2023-04-26T05:44:26;99426.44;;;15.87;74.69
30463;BME280;17256;43.618;25.336;2023-04-26T05:46:51;99473.13;;;16.10;72.46
30463;BME280;17256;43.618;25.336;2023-04-26T05:49:17;99592.78;;;16.61;74.14
30463;BME280;17256;43.618;25.336;2023-04-26T05:51:43;99442.88;;;15.72;72.21
30463;BME280;17256;43.618;25.336;2023-04-26T05:54:10;99361.25;;;14.76;72.65
30463;BME280;17256;43.618;25.336;2023-04-26T05:56:36;99455.50;;;14.97;74.69
30463;BME280;17256;43.618;25.336;2023-04-26T05:59:02;99559.97;;;15.72;74.22
30463;BME280;17256;43.618;25.336;2023-04-26T06:01:29;99490.44;;;15.47;71.90
30463;BME280;17256;43.618;25.336;2023-04-26T06:03:55;99539.59;;;15.39;73.17
30463;BME280;17256;43.618;25.336;2023-04-26T06:06:21;99411.84;;;14.77;72.37
30463;BME280;17256;43.618;25.336;2023-04-26T06:08:47;99435.91;;;15.20;73.96
30463;BME280;17256;43.618;25.336;2023-04-26T06:11:13;99456.50;;;15.56;73.73
30463;BME280;17256;43.618;25.336;2023-04-26T06:13:38;99546.06;;;16.16;70.73
30463;BME280;17256;43.618;25.336;2023-04-26T06:16:06;99420.03;;;15.59;70.46
30463;BME280;17256;43.618;25.336;2023-04-26T06:18:31;99537.47;;;16.44;69.24
30463;BME280;17256;43.618;25.336;2023-04-26T06:20:57;99520.47;;;16.09;69.67
30463;BME280;17256;43.618;25.336;2023-04-26T06:23:23;99419.16;;;15.32;68.05
30463;BME280;17256;43.618;25.336;2023-04-26T06:25:48;99514.78;;;15.66;71.11
30463;BME280;17256;43.618;25.336;2023-04-26T06:28:14;99530.81;;;16.13;70.08
30463;BME280;17256;43.618;25.336;2023-04-26T06:30:41;99526.72;;;16.53;68.59
30463;BME280;17256;43.618;25.336;2023-04-26T06:33:07;99584.97;;;17.69;67.86
30463;BME280;17256;43.618;25.336;2023-04-26T06:35:40;99565.94;;;17.46;67.73
30463;BME280;17256;43.618;25.336;2023-04-26T06:38:07;99456.91;;;16.56;67.01
30463;BME280;17256;43.618;25.336;2023-04-26T06:40:34;99428.41;;;15.91;65.77
30463;BME280;17256;43.618;25.336;2023-04-26T06:43:02;99506.53;;;16.89;65.44
30463;BME280;17256;43.618;25.336;2023-04-26T06:45:30;99401.25;;;16.25;64.17
30463;BME280;17256;43.618;25.336;2023-04-26T06:47:56;99512.06;;;16.57;64.68
30463;BME280;17256;43.618;25.336;2023-04-26T06:50:25;99411.25;;;15.62;65.03
30463;BME280;17256;43.618;25.336;2023-04-26T06:52:51;99463.97;;;15.56;68.54
30463;BME280;17256;43.618;25.336;2023-04-26T06:55:17;99497.19;;;16.05;65.69
30463;BME280;17256;43.618;25.336;2023-04-26T06:57:43;99577.94;;;16.77;64.88
30463;BME280;17256;43.618;25.336;2023-04-26T07:00:09;99414.31;;;15.66;63.91
30463;BME280;17256;43.618;25.336;2023-04-26T07:02:35;99456.41;;;15.95;64.69
30463;BME280;17256;43.618;25.336;2023-04-26T07:05:01;99434.72;;;15.87;65.08
30463;BME280;17256;43.618;25.336;2023-04-26T07:07:26;99445.38;;;16.00;65.13
30463;BME280;17256;43.618;25.336;2023-04-26T07:09:52;99497.84;;;16.44;63.70
30463;BME280;17256;43.618;25.336;2023-04-26T07:12:18;99481.28;;;16.91;64.86
30463;BME280;17256;43.618;25.336;2023-04-26T07:14:43;99650.44;;;17.65;63.80
30463;BME280;17256;43.618;25.336;2023-04-26T07:17:09;99551.91;;;17.20;63.64
30463;BME280;17256;43.618;25.336;2023-04-26T07:19:35;99469.47;;;17.11;62.44
30463;BME280;17256;43.618;25.336;2023-04-26T07:22:00;99510.00;;;17.74;62.50
30463;BME280;17256;43.618;25.336;2023-04-26T07:24:27;99563.72;;;18.10;62.14
30463;BME280;17256;43.618;25.336;2023-04-26T07:26:52;99538.34;;;17.76;62.24
30463;BME280;17256;43.618;25.336;2023-04-26T07:29:18;99499.63;;;17.49;60.14
30463;BME280;17256;43.618;25.336;2023-04-26T07:31:44;99432.59;;;17.15;61.49
30463;BME280;17256;43.618;25.336;2023-04-26T07:34:10;99494.81;;;17.30;60.17
30463;BME280;17256;43.618;25.336;2023-04-26T07:36:35;99558.34;;;17.78;60.66
30463;BME280;17256;43.618;25.336;2023-04-26T07:39:01;99513.78;;;17.58;59.09
30463;BME280;17256;43.618;25.336;2023-04-26T07:41:29;99517.78;;;17.72;58.74
30463;BME280;17256;43.618;25.336;2023-04-26T07:43:54;99472.75;;;17.60;59.46
30463;BME280;17256;43.618;25.336;2023-04-26T07:46:20;99514.41;;;17.65;58.61
30463;BME280;17256;43.618;25.336;2023-04-26T07:48:46;99545.06;;;17.91;58.43
30463;BME280;17256;43.618;25.336;2023-04-26T07:51:12;99525.63;;;17.86;59.05
30463;BME280;17256;43.618;25.336;2023-04-26T07:53:38;99525.06;;;17.99;58.43
30463;BME280;17256;43.618;25.336;2023-04-26T07:56:05;99525.94;;;18.09;58.56
30463;BME280;17256;43.618;25.336;2023-04-26T07:58:34;99502.78;;;17.68;58.45
30463;BME280;17256;43.618;25.336;2023-04-26T08:01:00;99468.31;;;17.64;58.26
30463;BME280;17256;43.618;25.336;2023-04-26T08:03:26;99611.31;;;18.34;58.38
30463;BME280;17256;43.618;25.336;2023-04-26T08:05:53;99545.63;;;18.08;58.73
30463;BME280;17256;43.618;25.336;2023-04-26T08:08:20;99499.81;;;17.33;58.94
30463;BME280;17256;43.618;25.336;2023-04-26T08:10:46;99527.78;;;17.83;59.82
30463;BME280;17256;43.618;25.336;2023-04-26T08:13:12;99597.88;;;18.06;59.52
30463;BME280;17256;43.618;25.336;2023-04-26T08:15:37;99623.38;;;17.93;59.10
30463;BME280;17256;43.618;25.336;2023-04-26T08:18:03;99495.72;;;16.93;59.00
30463;BME280;17256;43.618;25.336;2023-04-26T08:20:28;99700.94;;;18.77;59.68
30463;BME280;17256;43.618;25.336;2023-04-26T08:22:55;99466.91;;;17.62;57.90
30463;BME280;17256;43.618;25.336;2023-04-26T08:25:22;99536.19;;;17.94;57.66
30463;BME280;17256;43.618;25.336;2023-04-26T08:27:47;99494.78;;;17.92;57.59
30463;BME280;17256;43.618;25.336;2023-04-26T08:30:13;99450.88;;;17.84;57.13
30463;BME280;17256;43.618;25.336;2023-04-26T08:32:39;99513.75;;;18.46;57.33
30463;BME280;17256;43.618;25.336;2023-04-26T08:35:05;99395.91;;;17.96;56.76
30463;BME280;17256;43.618;25.336;2023-04-26T08:37:31;99619.72;;;19.36;57.96
30463;BME280;17256;43.618;25.336;2023-04-26T08:39:56;99540.72;;;18.40;56.02
30463;BME280;17256;43.618;25.336;2023-04-26T08:42:26;99477.41;;;17.54;57.16
30463;BME280;17256;43.618;25.336;2023-04-26T08:44:52;99448.28;;;17.52;58.18
30463;BME280;17256;43.618;25.336;2023-04-26T08:50:14;99506.78;;;18.23;57.88
30463;BME280;17256;43.618;25.336;2023-04-26T08:52:41;99463.41;;;17.92;56.82
30463;BME280;17256;43.618;25.336;2023-04-26T08:55:11;99690.09;;;18.75;57.42
30463;BME280;17256;43.618;25.336;2023-04-26T08:57:39;99516.69;;;17.83;59.03
30463;BME280;17256;43.618;25.336;2023-04-26T09:00:06;99518.16;;;18.27;58.79
30463;BME280;17256;43.618;25.336;2023-04-26T09:02:56;99512.63;;;18.42;56.75
30463;BME280;17256;43.618;25.336;2023-04-26T09:05:21;99520.66;;;18.13;55.77
30463;BME280;17256;43.618;25.336;2023-04-26T09:07:56;99488.09;;;17.15;56.92
30463;BME280;17256;43.618;25.336;2023-04-26T09:10:25;99489.91;;;17.47;57.78
30463;BME280;17256;43.618;25.336;2023-04-26T09:12:52;99502.66;;;17.43;57.33
30463;BME280;17256;43.618;25.336;2023-04-26T09:15:19;99461.53;;;17.35;58.95
30463;BME280;17256;43.618;25.336;2023-04-26T09:17:47;99613.88;;;18.77;57.97
30463;BME280;17256;43.618;25.336;2023-04-26T09:20:18;99680.69;;;19.38;56.21
30463;BME280;17256;43.618;25.336;2023-04-26T09:23:06;99480.38;;;18.10;57.70
30463;BME280;17256;43.618;25.336;2023-04-26T09:25:33;99477.03;;;18.03;56.44
30463;BME280;17256;43.618;25.336;2023-04-26T09:28:00;99605.53;;;19.22;57.36
30463;BME280;17256;43.618;25.336;2023-04-26T09:30:27;99341.84;;;17.06;57.53
30463;BME280;17256;43.618;25.336;2023-04-26T09:32:57;99461.03;;;17.43;58.89
30463;BME280;17256;43.618;25.336;2023-04-26T09:35:34;99401.16;;;17.77;59.75
30463;BME280;17256;43.618;25.336;2023-04-26T09:40:32;99676.13;;;19.97;56.72
30463;BME280;17256;43.618;25.336;2023-04-26T09:43:06;99411.19;;;18.65;57.53
30463;BME280;17256;43.618;25.336;2023-04-26T09:45:39;99429.25;;;18.27;56.56
30463;BME280;17256;43.618;25.336;2023-04-26T09:48:20;99684.84;;;18.94;58.53
30463;BME280;17256;43.618;25.336;2023-04-26T09:50:52;99688.19;;;18.96;58.34
30463;BME280;17256;43.618;25.336;2023-04-26T09:53:26;99679.00;;;18.86;56.73
30463;BME280;17256;43.618;25.336;2023-04-26T09:55:53;99515.63;;;18.05;57.41
30463;BME280;17256;43.618;25.336;2023-04-26T09:58:19;99500.69;;;18.41;57.26
30463;BME280;17256;43.618;25.336;2023-04-26T10:00:46;99466.78;;;18.39;56.89
30463;BME280;17256;43.618;25.336;2023-04-26T10:03:14;99474.53;;;18.22;57.85
30463;BME280;17256;43.618;25.336;2023-04-26T10:12:51;99307.72;;;16.90;56.05
30463;BME280;17256;43.618;25.336;2023-04-26T10:15:20;99425.03;;;17.68;57.89
30463;BME280;17256;43.618;25.336;2023-04-26T10:17:46;99332.13;;;17.03;56.43
30463;BME280;17256;43.618;25.336;2023-04-26T10:20:14;99488.97;;;18.04;56.97
30463;BME280;17256;43.618;25.336;2023-04-26T10:22:52;99508.47;;;18.44;56.81
30463;BME280;17256;43.618;25.336;2023-04-26T10:25:18;99485.31;;;17.78;56.01
30463;BME280;17256;43.618;25.336;2023-04-26T10:27:48;99426.97;;;17.73;56.30
30463;BME280;17256;43.618;25.336;2023-04-26T10:30:16;99289.19;;;17.16;55.89
30463;BME280;17256;43.618;25.336;2023-04-26T10:35:22;99365.06;;;17.72;56.17
30463;BME280;17256;43.618;25.336;2023-04-26T10:45:38;99388.50;;;17.19;57.55
30463;BME280;17256;43.618;25.336;2023-04-26T10:56:06;99550.97;;;18.30;56.91
30463;BME280;17256;43.618;25.336;2023-04-26T10:58:39;99500.13;;;18.34;54.86
30463;BME280;17256;43.618;25.336;2023-04-26T11:01:17;99591.91;;;19.05;54.76
30463;BME280;17256;43.618;25.336;2023-04-26T11:04:15;99693.78;;;19.62;55.88
30463;BME280;17256;43.618;25.336;2023-04-26T11:06:51;99695.44;;;19.69;55.19
30463;BME280;17256;43.618;25.336;2023-04-26T11:09:38;99711.28;;;19.73;56.98
30463;BME280;17256;43.618;25.336;2023-04-26T11:12:15;99432.88;;;18.22;55.84
30463;BME280;17256;43.618;25.336;2023-04-26T11:14:42;99412.59;;;18.17;55.47
30463;BME280;17256;43.618;25.336;2023-04-26T11:17:12;99671.75;;;19.56;54.69
30463;BME280;17256;43.618;25.336;2023-04-26T11:23:33;99601.28;;;19.71;55.62
30463;BME280;17256;43.618;25.336;2023-04-26T11:26:07;99468.41;;;18.96;53.86
30463;BME280;17256;43.618;25.336;2023-04-26T11:28:37;99516.78;;;19.00;53.18
30463;BME280;17256;43.618;25.336;2023-04-26T11:31:04;99469.47;;;19.05;53.60
30463;BME280;17256;43.618;25.336;2023-04-26T11:33:31;99599.44;;;20.05;53.99
30463;BME280;17256;43.618;25.336;2023-04-26T11:35:58;99491.66;;;19.31;54.57
30463;BME280;17256;43.618;25.336;2023-04-26T11:38:25;99376.47;;;17.91;53.38
30463;BME280;17256;43.618;25.336;2023-04-26T11:40:56;99465.06;;;18.03;53.82
30463;BME280;17256;43.618;25.336;2023-04-26T11:43:37;99414.22;;;17.82;53.92
30463;BME280;17256;43.618;25.336;2023-04-26T11:46:04;99659.50;;;19.72;54.49
30463;BME280;17256;43.618;25.336;2023-04-26T11:48:32;99662.38;;;20.21;53.39
30463;BME280;17256;43.618;25.336;2023-04-26T11:50:59;99475.94;;;18.91;51.44
30463;BME280;17256;43.618;25.336;2023-04-26T11:53:34;99466.47;;;18.82;53.02
30463;BME280;17256;43.618;25.336;2023-04-26T11:56:01;99431.16;;;18.57;53.21
30463;BME280;17256;43.618;25.336;2023-04-26T11:58:27;99508.19;;;18.97;53.86
30463;BME280;17256;43.618;25.336;2023-04-26T12:00:56;99653.59;;;19.79;54.67
30463;BME280;17256;43.618;25.336;2023-04-26T12:03:22;99503.16;;;19.04;54.53
30463;BME280;17256;43.618;25.336;2023-04-26T12:05:54;99591.31;;;19.44;54.07
30463;BME280;17256;43.618;25.336;2023-04-26T12:08:24;99435.06;;;18.76;54.23
30463;BME280;17256;43.618;25.336;2023-04-26T12:10:51;99461.19;;;18.85;54.28
30463;BME280;17256;43.618;25.336;2023-04-26T12:13:18;99443.91;;;19.09;53.84
30463;BME280;17256;43.618;25.336;2023-04-26T12:15:44;99516.66;;;19.61;54.05
30463;BME280;17256;43.618;25.336;2023-04-26T12:18:11;99416.22;;;19.32;53.20
30463;BME280;17256;43.618;25.336;2023-04-26T12:20:39;99481.34;;;19.96;52.71
30463;BME280;17256;43.618;25.336;2023-04-26T12:23:06;99642.59;;;21.11;53.08
30463;BME280;17256;43.618;25.336;2023-04-26T12:25:33;99490.00;;;19.94;53.05
30463;BME280;17256;43.618;25.336;2023-04-26T12:28:01;99504.06;;;19.69;53.62
30463;BME280;17256;43.618;25.336;2023-04-26T12:30:28;99639.63;;;20.58;54.91
30463;BME280;17256;43.618;25.336;2023-04-26T12:33:02;99492.66;;;19.71;53.60
30463;BME280;17256;43.618;25.336;2023-04-26T12:35:29;99418.66;;;18.74;54.77
30463;BME280;17256;43.618;25.336;2023-04-26T12:37:54;99380.31;;;18.46;55.56
30463;BME280;17256;43.618;25.336;2023-04-26T12:40:22;99477.00;;;19.10;55.34
30463;BME280;17256;43.618;25.336;2023-04-26T12:42:48;99446.69;;;19.09;55.29
30463;BME280;17256;43.618;25.336;2023-04-26T12:45:17;99575.59;;;19.89;54.90
30463;BME280;17256;43.618;25.336;2023-04-26T12:47:44;99455.09;;;19.58;54.20
30463;BME280;17256;43.618;25.336;2023-04-26T12:50:11;99613.25;;;20.31;54.55
30463;BME280;17256;43.618;25.336;2023-04-26T12:52:40;99368.84;;;18.83;55.71
30463;BME280;17256;43.618;25.336;2023-04-26T12:55:09;99479.97;;;19.29;54.86
30463;BME280;17256;43.618;25.336;2023-04-26T12:57:39;99269.22;;;18.05;55.67
30463;BME280;17256;43.618;25.336;2023-04-26T13:00:14;99315.31;;;18.37;55.14
30463;BME280;17256;43.618;25.336;2023-04-26T13:02:41;99363.34;;;18.48;54.91
30463;BME280;17256;43.618;25.336;2023-04-26T13:05:11;99480.53;;;19.26;55.42
30463;BME280;17256;43.618;25.336;2023-04-26T13:07:42;99352.25;;;18.63;55.67
30463;BME280;17256;43.618;25.336;2023-04-26T13:10:08;99192.91;;;17.62;55.22
30463;BME280;17256;43.618;25.336;2023-04-26T13:12:36;99259.28;;;17.74;55.63
30463;BME280;17256;43.618;25.336;2023-04-26T13:15:07;99239.56;;;17.86;55.38
30463;BME280;17256;43.618;25.336;2023-04-26T13:17:34;99411.13;;;18.80;55.86
30463;BME280;17256;43.618;25.336;2023-04-26T13:20:01;99228.16;;;17.77;55.50
30463;BME280;17256;43.618;25.336;2023-04-26T13:22:26;99494.50;;;19.21;55.63
30463;BME280;17256;43.618;25.336;2023-04-26T13:24:52;99394.47;;;18.60;56.02
30463;BME280;17256;43.618;25.336;2023-04-26T13:27:18;99437.03;;;18.70;55.62
30463;BME280;17256;43.618;25.336;2023-04-26T13:29:43;99488.44;;;18.88;55.88
30463;BME280;17256;43.618;25.336;2023-04-26T13:32:09;99468.09;;;19.03;55.26
30463;BME280;17256;43.618;25.336;2023-04-26T13:34:35;99523.94;;;19.32;55.47
30463;BME280;17256;43.618;25.336;2023-04-26T13:37:01;99517.91;;;19.10;55.07
30463;BME280;17256;43.618;25.336;2023-04-26T13:39:28;99523.75;;;19.13;55.26
30463;BME280;17256;43.618;25.336;2023-04-26T13:41:54;99478.38;;;19.02;55.50
30463;BME280;17256;43.618;25.336;2023-04-26T13:44:20;99577.63;;;19.58;55.95
30463;BME280;17256;43.618;25.336;2023-04-26T13:46:46;99463.97;;;18.80;56.27
30463;BME280;17256;43.618;25.336;2023-04-26T13:49:12;99572.94;;;19.33;55.88
30463;BME280;17256;43.618;25.336;2023-04-26T13:51:39;99538.50;;;18.98;55.66
30463;BME280;17256;43.618;25.336;2023-04-26T13:54:05;99429.53;;;18.20;56.01
30463;BME280;17256;43.618;25.336;2023-04-26T13:56:34;99497.34;;;18.75;56.24
30463;BME280;17256;43.618;25.336;2023-04-26T13:59:00;99499.59;;;18.88;56.56
30463;BME280;17256;43.618;25.336;2023-04-26T14:01:28;99507.66;;;18.90;56.47
30463;BME280;17256;43.618;25.336;2023-04-26T14:03:54;99479.81;;;18.80;55.42
30463;BME280;17256;43.618;25.336;2023-04-26T14:06:19;99664.50;;;19.70;55.25
30463;BME280;17256;43.618;25.336;2023-04-26T14:08:45;99431.19;;;18.21;55.15
30463;BME280;17256;43.618;25.336;2023-04-26T14:11:11;99392.88;;;18.13;55.29
30463;BME280;17256;43.618;25.336;2023-04-26T14:13:37;99507.91;;;18.53;55.75
30463;BME280;17256;43.618;25.336;2023-04-26T14:16:04;99492.03;;;18.33;56.82
30463;BME280;17256;43.618;25.336;2023-04-26T14:18:29;99464.78;;;17.89;56.29
30463;BME280;17256;43.618;25.336;2023-04-26T14:20:55;99463.97;;;17.89;56.74
30463;BME280;17256;43.618;25.336;2023-04-26T14:23:21;99436.66;;;17.65;57.20
30463;BME280;17256;43.618;25.336;2023-04-26T14:25:50;99415.03;;;17.72;58.17
30463;BME280;17256;43.618;25.336;2023-04-26T14:28:39;99665.94;;;19.01;56.96
30463;BME280;17256;43.618;25.336;2023-04-26T14:31:06;99224.78;;;16.16;57.20
30463;BME280;17256;43.618;25.336;2023-04-26T14:33:34;99670.91;;;18.79;58.21
30463;BME280;17256;43.618;25.336;2023-04-26T14:36:01;99513.06;;;17.78;60.43
30463;BME280;17256;43.618;25.336;2023-04-26T14:38:27;99375.28;;;16.74;66.33
30463;BME280;17256;43.618;25.336;2023-04-26T14:40:53;99534.66;;;17.66;68.05
30463;BME280;17256;43.618;25.336;2023-04-26T14:43:19;99685.66;;;18.02;68.90
30463;BME280;17256;43.618;25.336;2023-04-26T14:45:45;99279.31;;;14.87;78.71
30463;BME280;17256;43.618;25.336;2023-04-26T14:48:11;99270.53;;;14.08;90.41
30463;BME280;17256;43.618;25.336;2023-04-26T14:50:56;99741.47;;;16.50;99.74